createdAt,value
2018-07-13T00:02:20.249Z,79.20
2018-07-13T00:04:48.623Z,79.70
2018-07-13T00:07:17.031Z,80.30
2018-07-13T00:09:45.365Z,80.60
2018-07-13T00:12:13.749Z,80.40
2018-07-13T00:14:53.194Z,80.40
2018-07-13T00:17:21.573Z,79.90
2018-07-13T00:19:49.953Z,80.00
2018-07-13T00:22:18.276Z,79.90
2018-07-13T00:24:46.629Z,79.60
2018-07-13T00:27:14.961Z,79.70
2018-07-13T00:29:43.266Z,79.70
2018-07-13T00:32:11.612Z,79.80
2018-07-13T00:34:39.936Z,79.90
2018-07-13T00:37:08.251Z,80.00
2018-07-13T00:39:36.688Z,80.10
2018-07-13T00:42:05.013Z,80.00
2018-07-13T00:44:33.342Z,80.60
2018-07-13T00:47:01.684Z,80.70
2018-07-13T00:49:30.000Z,80.70
2018-07-13T00:51:58.330Z,80.70
2018-07-13T00:54:26.724Z,80.70
2018-07-13T00:56:55.025Z,81.30
2018-07-13T00:59:23.349Z,81.70
2018-07-13T01:01:51.729Z,82.30
2018-07-13T01:04:20.071Z,82.60
2018-07-13T01:06:48.497Z,82.60
2018-07-13T01:09:16.829Z,82.20
2018-07-13T01:11:45.194Z,82.30
2018-07-13T01:14:13.546Z,82.30
2018-07-13T01:16:41.888Z,82.00
2018-07-13T01:19:10.271Z,82.30
2018-07-13T01:21:38.689Z,82.30
2018-07-13T01:24:07.213Z,82.50
2018-07-13T01:26:35.537Z,82.50
2018-07-13T01:29:03.916Z,83.20
2018-07-13T01:31:32.276Z,82.80
2018-07-13T01:34:00.676Z,82.90
2018-07-13T01:38:57.063Z,82.90
2018-07-13T01:41:25.393Z,83.20
2018-07-13T01:43:53.774Z,83.30
2018-07-13T01:46:22.136Z,83.40
2018-07-13T01:48:50.473Z,84.30
2018-07-13T01:51:18.845Z,84.10
2018-07-13T01:53:47.159Z,84.00
2018-07-13T01:56:15.485Z,84.00
2018-07-13T01:58:43.810Z,84.40
2018-07-13T02:01:12.213Z,84.80
2018-07-13T02:03:40.546Z,85.30
2018-07-13T02:06:08.881Z,84.80
2018-07-13T02:08:37.196Z,84.70
2018-07-13T02:11:05.563Z,85.00
2018-07-13T02:13:33.901Z,84.80
2018-07-13T02:16:02.223Z,85.10
2018-07-13T02:18:30.545Z,85.00
2018-07-13T02:20:58.900Z,84.70
2018-07-13T02:23:27.234Z,84.30
2018-07-13T02:25:55.532Z,84.70
2018-07-13T02:28:23.918Z,84.70
2018-07-13T02:30:52.195Z,84.80
2018-07-13T02:33:21.224Z,84.90
2018-07-13T02:35:50.068Z,84.90
2018-07-13T02:38:19.413Z,85.00
2018-07-13T02:40:48.047Z,85.00
2018-07-13T02:43:16.943Z,85.30
2018-07-13T02:45:45.487Z,85.20
2018-07-13T02:48:13.882Z,85.80
2018-07-13T02:50:42.855Z,85.40
2018-07-13T02:53:11.911Z,85.30
2018-07-13T02:55:40.462Z,85.30
2018-07-13T02:58:09.275Z,85.80
2018-07-13T03:00:37.647Z,85.60
2018-07-13T03:03:06.175Z,85.50
2018-07-13T03:05:34.467Z,85.90
2018-07-13T03:08:02.829Z,85.90
2018-07-13T03:10:31.137Z,86.20
2018-07-13T03:12:59.506Z,85.90
2018-07-13T03:15:27.877Z,85.80
2018-07-13T03:17:56.181Z,86.60
2018-07-13T03:20:24.541Z,86.60
2018-07-13T03:22:53.429Z,86.40
2018-07-13T03:25:21.804Z,86.20
2018-07-13T03:27:50.173Z,86.40
2018-07-13T03:30:18.497Z,86.50
2018-07-13T03:32:46.838Z,86.30
2018-07-13T03:35:15.185Z,86.50
2018-07-13T03:37:43.521Z,86.90
2018-07-13T03:40:11.834Z,86.50
2018-07-13T03:42:40.192Z,87.20
2018-07-13T03:45:08.504Z,87.20
2018-07-13T03:47:36.852Z,87.00
2018-07-13T03:50:05.187Z,86.70
2018-07-13T03:52:33.516Z,86.70
2018-07-13T03:57:29.914Z,86.20
2018-07-13T03:59:58.352Z,86.20
2018-07-13T04:02:26.748Z,86.40
2018-07-13T04:04:55.111Z,86.40
2018-07-13T04:07:23.416Z,86.60
2018-07-13T04:09:51.779Z,86.40
2018-07-13T04:12:20.178Z,86.40
2018-07-13T04:14:48.536Z,86.70
2018-07-13T04:17:16.955Z,86.60
2018-07-13T04:19:45.296Z,87.10
2018-07-13T04:22:13.680Z,86.20
2018-07-13T04:24:42.091Z,86.20
2018-07-13T04:27:10.489Z,86.40
2018-07-13T04:29:38.834Z,86.20
2018-07-13T04:32:07.183Z,86.70
2018-07-13T04:34:35.499Z,86.20
2018-07-13T04:37:03.809Z,86.00
2018-07-13T04:39:32.134Z,86.20
2018-07-13T04:42:00.462Z,86.10
2018-07-13T04:44:28.799Z,85.80
2018-07-13T04:46:57.191Z,86.10
2018-07-13T04:49:25.553Z,85.90
2018-07-13T04:51:54.179Z,85.80
2018-07-13T04:54:22.880Z,85.70
2018-07-13T04:56:51.212Z,85.80
2018-07-13T04:59:19.625Z,86.60
2018-07-13T05:01:48.028Z,86.20
2018-07-13T05:04:16.366Z,86.20
2018-07-13T05:06:44.785Z,85.90
2018-07-13T05:09:13.188Z,85.70
2018-07-13T05:11:41.572Z,85.70
2018-07-13T05:14:09.888Z,85.10
2018-07-13T05:16:38.232Z,84.90
2018-07-13T05:19:06.615Z,84.80
2018-07-13T05:21:35.024Z,84.80
2018-07-13T05:24:03.411Z,84.70
2018-07-13T05:26:31.856Z,85.20
2018-07-13T05:29:00.197Z,85.60
2018-07-13T05:31:28.612Z,85.50
2018-07-13T05:33:57.033Z,85.00
2018-07-13T05:36:25.374Z,85.30
2018-07-13T05:38:53.757Z,84.80
2018-07-13T05:41:22.334Z,84.70
2018-07-13T05:43:50.763Z,85.30
2018-07-13T05:46:19.258Z,85.10
2018-07-13T05:48:47.667Z,85.80
2018-07-13T05:51:16.105Z,86.40
2018-07-13T05:53:44.524Z,87.00
2018-07-13T05:56:12.868Z,86.60
2018-07-13T05:58:41.344Z,86.20
2018-07-13T06:03:37.879Z,86.10
2018-07-13T06:06:06.270Z,85.90
2018-07-13T06:08:34.637Z,86.00
2018-07-13T06:11:03.109Z,85.30
2018-07-13T06:13:31.523Z,85.20
2018-07-13T06:16:00.207Z,85.20
2018-07-13T06:18:28.622Z,85.30
2018-07-13T06:20:57.047Z,84.50
2018-07-13T06:23:25.408Z,84.10
2018-07-13T06:25:53.748Z,84.00
2018-07-13T06:28:22.143Z,84.00
2018-07-13T06:30:50.541Z,84.30
2018-07-13T06:33:19.293Z,83.90
2018-07-13T06:35:47.699Z,84.00
2018-07-13T06:38:16.111Z,83.70
2018-07-13T06:40:44.594Z,83.70
2018-07-13T06:43:13.012Z,83.40
2018-07-13T06:45:41.837Z,82.90
2018-07-13T06:48:10.721Z,84.20
2018-07-13T06:50:39.171Z,83.80
2018-07-13T06:53:08.122Z,82.80
2018-07-13T06:55:36.560Z,83.00
2018-07-13T06:58:16.242Z,83.40
2018-07-13T07:00:56.615Z,83.50
2018-07-13T07:03:25.789Z,82.90
2018-07-13T07:06:13.492Z,82.60
2018-07-13T07:08:43.893Z,81.90
2018-07-13T07:11:12.310Z,81.70
2018-07-13T07:13:43.332Z,81.30
2018-07-13T07:16:11.669Z,81.20
2018-07-13T07:18:40.019Z,81.50
2018-07-13T07:21:08.523Z,81.80
2018-07-13T07:23:36.964Z,81.50
2018-07-13T07:26:05.832Z,82.00
2018-07-13T07:28:34.255Z,81.30
2018-07-13T07:31:03.179Z,81.20
2018-07-13T07:35:59.644Z,79.60
2018-07-13T07:38:28.179Z,79.60
2018-07-13T07:40:56.520Z,81.40
2018-07-13T07:45:54.543Z,81.10
2018-07-13T07:48:23.045Z,80.10
2018-07-13T07:50:51.400Z,80.30
2018-07-13T07:53:20.233Z,80.60
2018-07-13T07:55:49.022Z,79.30
2018-07-13T07:58:17.540Z,79.00
2018-07-13T08:00:46.544Z,78.70
2018-07-13T08:03:15.020Z,78.40
2018-07-13T08:05:43.473Z,77.40
2018-07-13T08:08:11.857Z,79.60
2018-07-13T08:10:40.532Z,78.40
2018-07-13T08:13:08.953Z,78.70
2018-07-13T08:15:37.716Z,77.60
2018-07-13T08:18:06.282Z,76.30
2018-07-13T08:20:37.112Z,76.00
2018-07-13T08:23:06.907Z,75.60
2018-07-13T08:25:35.482Z,75.40
2018-07-13T08:28:04.545Z,75.10
2018-07-13T08:30:44.962Z,72.60
2018-07-13T08:33:13.375Z,71.30
2018-07-13T08:35:41.919Z,71.10
2018-07-13T08:38:10.382Z,72.80
2018-07-13T08:40:39.021Z,72.40
2018-07-13T08:43:07.463Z,70.70
2018-07-13T08:45:35.922Z,70.40
2018-07-13T08:48:04.425Z,71.40
2018-07-13T08:50:33.552Z,68.90
2018-07-13T08:55:30.252Z,69.20
2018-07-13T08:57:58.761Z,68.20
2018-07-13T09:00:27.248Z,67.20
2018-07-13T09:02:55.653Z,65.50
2018-07-13T09:05:24.079Z,65.80
2018-07-13T09:07:52.505Z,64.90
2018-07-13T09:10:20.995Z,66.90
2018-07-13T09:12:49.407Z,65.10
2018-07-13T09:15:18.106Z,64.60
2018-07-13T09:17:46.462Z,62.50
2018-07-13T09:20:14.853Z,60.00
2018-07-13T09:25:11.920Z,62.00
2018-07-13T09:27:41.116Z,61.70
2018-07-13T09:30:11.059Z,60.80
2018-07-13T09:32:39.599Z,60.10
2018-07-13T09:35:08.053Z,59.70
2018-07-13T09:37:36.549Z,59.70
2018-07-13T09:40:05.236Z,59.40
2018-07-13T09:42:33.869Z,59.90
2018-07-13T09:45:02.368Z,58.30
2018-07-13T09:47:30.873Z,58.60
2018-07-13T09:52:27.418Z,58.20
2018-07-13T09:57:25.100Z,56.70
2018-07-13T09:59:53.865Z,56.80
2018-07-13T10:02:22.291Z,59.00
2018-07-13T10:04:50.711Z,57.00
2018-07-13T10:07:19.140Z,55.30
2018-07-13T10:09:47.571Z,54.40
2018-07-13T10:12:16.005Z,54.50
2018-07-13T10:14:44.487Z,54.90
2018-07-13T10:17:12.975Z,54.20
2018-07-13T10:19:41.369Z,53.80
2018-07-13T10:22:12.113Z,52.80
2018-07-13T10:24:41.974Z,53.30
2018-07-13T10:27:10.402Z,52.70
2018-07-13T10:29:42.219Z,53.30
2018-07-13T10:32:10.665Z,52.80
2018-07-13T10:34:39.111Z,54.70
2018-07-13T10:37:07.857Z,55.00
2018-07-13T10:39:36.331Z,53.80
2018-07-13T10:42:04.818Z,53.80
2018-07-13T10:44:33.221Z,51.60
2018-07-13T10:47:01.712Z,52.00
2018-07-13T10:49:30.191Z,52.30
2018-07-13T10:51:58.591Z,51.60
2018-07-13T10:54:27.021Z,51.80
2018-07-13T10:56:55.571Z,52.50
2018-07-13T10:59:23.993Z,51.40
2018-07-13T11:01:52.610Z,51.90
2018-07-13T11:04:21.100Z,50.00
2018-07-13T11:06:49.492Z,50.60
2018-07-13T11:09:17.916Z,50.00
2018-07-13T11:11:46.353Z,49.20
2018-07-13T11:14:14.768Z,49.00
2018-07-13T11:16:43.165Z,48.40
2018-07-13T11:19:11.524Z,48.70
2018-07-13T11:21:40.200Z,47.20
2018-07-13T11:24:08.626Z,48.50
2018-07-13T11:26:37.012Z,46.60
2018-07-13T11:29:05.697Z,47.10
2018-07-13T11:31:34.043Z,46.00
2018-07-13T11:34:02.360Z,46.10
2018-07-13T11:36:30.795Z,45.00
2018-07-13T11:38:59.148Z,44.10
2018-07-13T11:43:55.611Z,45.70
2018-07-13T11:46:23.995Z,45.70
2018-07-13T11:48:52.417Z,46.80
2018-07-13T11:51:20.886Z,45.40
2018-07-13T11:53:49.309Z,45.20
2018-07-13T11:56:17.780Z,44.50
2018-07-13T11:58:46.114Z,45.80
2018-07-13T12:01:14.518Z,45.60
2018-07-13T12:03:43.767Z,45.00
2018-07-13T12:06:12.219Z,46.10
2018-07-13T12:08:40.749Z,44.50
2018-07-13T12:11:09.186Z,43.80
2018-07-13T12:13:37.609Z,44.30
2018-07-13T12:16:06.113Z,44.70
2018-07-13T12:18:34.546Z,45.10
2018-07-13T12:21:02.916Z,44.20
2018-07-13T12:23:31.361Z,45.00
2018-07-13T12:26:00.164Z,45.30
2018-07-13T12:28:28.590Z,47.30
2018-07-13T12:30:57.078Z,46.40
2018-07-13T12:33:25.762Z,46.10
2018-07-13T12:35:54.240Z,45.50
2018-07-13T12:38:22.632Z,44.40
2018-07-13T12:40:51.106Z,45.40
2018-07-13T12:43:19.460Z,43.90
2018-07-13T12:45:47.894Z,45.70
2018-07-13T12:48:16.325Z,45.90
2018-07-13T12:50:44.807Z,44.40
2018-07-13T12:53:13.169Z,45.90
2018-07-13T12:55:41.562Z,43.80
2018-07-13T12:58:10.011Z,44.00
2018-07-13T13:00:38.428Z,43.90
2018-07-13T13:03:06.840Z,43.60
2018-07-13T13:08:03.432Z,45.80
2018-07-13T13:10:31.836Z,45.60
2018-07-13T13:13:00.384Z,45.20
2018-07-13T13:15:28.812Z,44.30
2018-07-13T13:17:57.231Z,44.20
2018-07-13T13:20:25.613Z,43.60
2018-07-13T13:22:54.042Z,42.80
2018-07-13T13:25:22.436Z,44.10
2018-07-13T13:27:50.808Z,43.60
2018-07-13T13:30:19.216Z,44.00
2018-07-13T13:32:47.668Z,43.00
2018-07-13T13:35:16.151Z,42.70
2018-07-13T13:37:44.560Z,43.70
2018-07-13T13:40:13.009Z,45.70
2018-07-13T13:42:41.399Z,46.20
2018-07-13T13:45:09.848Z,44.90
2018-07-13T13:47:38.224Z,45.70
2018-07-13T13:50:06.653Z,47.30
2018-07-13T13:52:35.024Z,46.30
2018-07-13T13:55:03.471Z,45.80
2018-07-13T13:59:59.957Z,46.10
2018-07-13T14:04:56.713Z,46.70
2018-07-13T14:09:53.256Z,46.60
2018-07-13T14:12:21.758Z,46.70
2018-07-13T14:14:50.107Z,46.90
2018-07-13T14:17:18.420Z,46.20
2018-07-13T14:19:46.788Z,47.20
2018-07-13T14:22:15.308Z,47.20
2018-07-13T14:24:43.686Z,47.50
2018-07-13T14:27:12.093Z,46.90
2018-07-13T14:29:40.925Z,46.60
2018-07-13T14:32:09.281Z,46.50
2018-07-13T14:34:37.695Z,45.90
2018-07-13T14:37:06.095Z,46.80
2018-07-13T14:39:34.507Z,46.50
2018-07-13T14:42:02.993Z,46.80
2018-07-13T14:44:31.335Z,45.10
2018-07-13T14:46:59.859Z,45.00
2018-07-13T14:49:28.160Z,45.20
2018-07-13T14:51:56.540Z,44.90
2018-07-13T14:54:24.965Z,45.10
2018-07-13T14:56:53.352Z,45.60
2018-07-13T14:59:21.734Z,45.40
2018-07-13T15:01:50.214Z,45.60
2018-07-13T15:04:18.724Z,45.70
2018-07-13T15:06:47.164Z,45.80
2018-07-13T15:09:15.467Z,45.80
2018-07-13T15:11:43.993Z,44.80
2018-07-13T15:14:12.316Z,44.80
2018-07-13T15:16:40.678Z,45.40
2018-07-13T15:19:09.430Z,45.30
2018-07-13T15:21:37.779Z,45.80
2018-07-13T15:24:06.113Z,45.30
2018-07-13T15:26:35.076Z,45.40
2018-07-13T15:29:03.520Z,44.50
2018-07-13T15:31:31.916Z,45.20
2018-07-13T15:34:00.301Z,45.10
2018-07-13T15:36:28.681Z,45.50
2018-07-13T15:38:57.105Z,45.60
2018-07-13T15:43:53.852Z,46.00
2018-07-13T15:46:22.293Z,45.90
2018-07-13T15:48:50.779Z,45.80
2018-07-13T15:51:19.298Z,45.30
2018-07-13T15:53:47.698Z,45.50
2018-07-13T15:56:16.100Z,45.00
2018-07-13T15:58:44.536Z,45.60
2018-07-13T16:01:13.193Z,45.20
2018-07-13T16:03:41.576Z,45.20
2018-07-13T16:06:09.965Z,45.50
2018-07-13T16:08:38.302Z,46.40
2018-07-13T16:11:06.654Z,47.90
2018-07-13T16:13:35.100Z,49.50
2018-07-13T16:16:03.470Z,48.70
2018-07-13T16:21:00.008Z,48.80
2018-07-13T16:23:28.401Z,48.30
2018-07-13T16:25:56.781Z,48.80
2018-07-13T16:30:53.316Z,49.70
2018-07-13T16:33:21.766Z,50.60
2018-07-13T16:35:50.453Z,50.90
2018-07-13T16:38:18.839Z,51.40
2018-07-13T16:40:47.258Z,50.70
2018-07-13T16:43:15.647Z,50.60
2018-07-13T16:45:43.999Z,50.80
2018-07-13T16:48:12.333Z,51.70
2018-07-13T16:50:40.805Z,51.80
2018-07-13T16:53:09.185Z,51.20
2018-07-13T16:55:37.554Z,51.50
2018-07-13T16:58:05.936Z,51.60
2018-07-13T17:00:34.260Z,52.20
2018-07-13T17:03:02.685Z,52.00
2018-07-13T17:05:31.153Z,52.50
2018-07-13T17:07:59.576Z,52.80
2018-07-13T17:10:27.975Z,53.00
2018-07-13T17:12:56.422Z,52.90
2018-07-13T17:15:24.817Z,52.70
2018-07-13T17:17:53.202Z,52.80
2018-07-13T17:20:21.668Z,53.00
2018-07-13T17:22:50.162Z,53.30
2018-07-13T17:25:18.903Z,53.10
2018-07-13T17:30:15.478Z,52.50
2018-07-13T17:32:43.889Z,52.60
2018-07-13T17:35:12.444Z,53.10
2018-07-13T17:37:40.813Z,53.50
2018-07-13T17:40:09.232Z,52.90
2018-07-13T17:42:37.693Z,52.20
2018-07-13T17:45:06.454Z,52.40
2018-07-13T17:47:34.822Z,52.50
2018-07-13T17:50:03.240Z,52.80
2018-07-13T17:52:31.756Z,53.00
2018-07-13T17:55:00.167Z,52.50
2018-07-13T17:57:28.588Z,53.00
2018-07-13T17:59:57.120Z,53.00
2018-07-13T18:02:25.620Z,53.10
2018-07-13T18:04:54.319Z,53.40
2018-07-13T18:07:22.885Z,53.90
2018-07-13T18:09:51.308Z,54.00
2018-07-13T18:12:19.778Z,54.10
2018-07-13T18:14:48.451Z,54.90
2018-07-13T18:17:16.825Z,55.10
2018-07-13T18:19:45.293Z,55.40
2018-07-13T18:22:13.806Z,55.80
2018-07-13T18:24:42.354Z,55.50
2018-07-13T18:27:11.383Z,55.30
2018-07-13T18:29:39.827Z,55.90
2018-07-13T18:32:08.368Z,55.90
2018-07-13T18:34:37.239Z,56.30
2018-07-13T18:37:06.085Z,56.20
2018-07-13T18:39:34.596Z,56.50
2018-07-13T18:42:03.123Z,57.60
2018-07-13T18:44:31.573Z,56.90
2018-07-13T18:46:59.962Z,57.30
2018-07-13T18:49:28.376Z,57.50
2018-07-13T18:51:56.794Z,58.20
2018-07-13T18:54:25.228Z,58.50
2018-07-13T18:56:53.663Z,58.70
2018-07-13T18:59:22.037Z,59.40
2018-07-13T19:01:50.421Z,60.00
2018-07-13T19:04:18.824Z,59.80
2018-07-13T19:06:47.198Z,60.10
2018-07-13T19:09:15.698Z,59.90
2018-07-13T19:14:12.218Z,60.40
2018-07-13T19:16:40.958Z,60.90
2018-07-13T19:21:37.502Z,60.30
2018-07-13T19:26:34.621Z,62.20
2018-07-13T19:29:03.087Z,61.40
2018-07-13T19:31:31.536Z,61.60
2018-07-13T19:36:28.082Z,62.60
2018-07-13T19:38:56.767Z,62.10
2018-07-13T19:41:25.205Z,62.20
2018-07-13T19:43:53.934Z,62.00
2018-07-13T19:46:22.373Z,62.30
2018-07-13T19:48:50.860Z,61.50
2018-07-13T19:51:19.278Z,61.70
2018-07-13T19:53:47.702Z,62.50
2018-07-13T19:56:16.060Z,62.40
2018-07-13T19:58:44.749Z,63.60
2018-07-13T20:01:13.211Z,64.10
2018-07-13T20:03:41.653Z,64.40
2018-07-13T20:06:10.021Z,64.40
2018-07-13T20:08:38.504Z,65.20
2018-07-13T20:11:06.930Z,64.30
2018-07-13T20:13:35.349Z,64.40
2018-07-13T20:16:03.779Z,64.70
2018-07-13T20:18:32.209Z,64.80
2018-07-13T20:21:00.631Z,64.60
2018-07-13T20:23:29.041Z,64.90
2018-07-13T20:25:57.434Z,65.30
2018-07-13T20:28:25.780Z,65.10
2018-07-13T20:30:54.146Z,65.80
2018-07-13T20:33:22.722Z,65.50
2018-07-13T20:35:51.089Z,65.60
2018-07-13T20:38:19.569Z,66.70
2018-07-13T20:40:47.952Z,66.40
2018-07-13T20:43:16.365Z,66.30
2018-07-13T20:45:44.750Z,66.90
2018-07-13T20:48:13.212Z,67.30
2018-07-13T20:50:41.611Z,67.20
2018-07-13T20:53:10.157Z,66.70
2018-07-13T20:55:38.950Z,67.40
2018-07-13T20:58:07.735Z,67.50
2018-07-13T21:00:36.186Z,67.40
2018-07-13T21:03:04.598Z,67.20
2018-07-13T21:05:33.002Z,68.90
2018-07-13T21:08:01.450Z,68.60
2018-07-13T21:10:29.883Z,69.30
2018-07-13T21:12:58.217Z,69.10
2018-07-13T21:15:26.678Z,69.10
2018-07-13T21:17:55.080Z,69.20
2018-07-13T21:20:23.755Z,68.90
2018-07-13T21:22:52.012Z,68.90
2018-07-13T21:25:21.036Z,69.30
2018-07-13T21:27:49.890Z,69.60
2018-07-13T21:30:18.348Z,69.60
2018-07-13T21:32:46.744Z,70.10
2018-07-13T21:35:15.187Z,70.00
2018-07-13T21:37:43.989Z,70.80
2018-07-13T21:40:12.378Z,70.50
2018-07-13T21:42:40.734Z,70.90
2018-07-13T21:45:09.130Z,70.40
2018-07-13T21:50:05.712Z,69.90
2018-07-13T21:52:34.151Z,69.50
2018-07-13T21:55:02.687Z,70.50
2018-07-13T21:57:31.603Z,71.90
2018-07-13T22:00:00.023Z,71.80
2018-07-13T22:02:28.526Z,71.60
2018-07-13T22:04:57.193Z,71.60
2018-07-13T22:07:25.695Z,71.70
2018-07-13T22:09:54.246Z,72.40
2018-07-13T22:12:22.726Z,72.40
2018-07-13T22:14:51.189Z,72.20
2018-07-13T22:17:19.581Z,72.40
2018-07-13T22:19:47.940Z,72.20
2018-07-13T22:22:16.421Z,72.40
2018-07-13T22:24:44.960Z,72.70
2018-07-13T22:27:13.661Z,73.20
2018-07-13T22:29:42.090Z,73.60
2018-07-13T22:32:10.549Z,74.00
2018-07-13T22:34:38.931Z,74.40
2018-07-13T22:37:07.463Z,75.20
2018-07-13T22:39:36.128Z,75.20
2018-07-13T22:44:32.952Z,75.10
2018-07-13T22:47:01.958Z,75.10
2018-07-13T22:49:30.546Z,75.20
2018-07-13T22:51:59.109Z,76.40
2018-07-13T22:54:27.613Z,76.30
2018-07-13T22:56:56.066Z,76.50
2018-07-13T22:59:25.061Z,76.30
2018-07-13T23:01:53.453Z,75.80
2018-07-13T23:04:21.908Z,75.90
2018-07-13T23:06:50.350Z,76.20
2018-07-13T23:09:18.758Z,75.50
2018-07-13T23:11:47.101Z,75.50
2018-07-13T23:14:15.749Z,75.40
2018-07-13T23:16:44.194Z,76.00
2018-07-13T23:19:12.929Z,76.30
2018-07-13T23:21:41.419Z,76.50
2018-07-13T23:24:09.949Z,76.50
2018-07-13T23:26:38.390Z,77.00
2018-07-13T23:29:06.842Z,77.50
2018-07-13T23:31:35.267Z,77.10
2018-07-13T23:34:03.635Z,76.80
2018-07-13T23:36:32.003Z,77.00
2018-07-13T23:41:28.522Z,77.10
2018-07-13T23:43:56.912Z,77.70
2018-07-13T23:46:25.284Z,77.90
2018-07-13T23:48:53.828Z,78.10
2018-07-13T23:51:22.241Z,78.20
2018-07-13T23:53:50.595Z,78.40
2018-07-13T23:58:47.118Z,79.20
